Terminal Aerodrome Forecast
Issued by NWS Charleston, WV

Current Version | Previous Version | Graphics & Text | Print | Product List | Glossary Off
Versions: 1 2 3 4 5 6 7 8 9 10 11 12 13 14 15 16 17 18 19 20 21 22 23 24 25 26

000
FTUS41 KRLX 062116 AAA
TAFEKN
TAF AMD
KEKN 062116Z 0621/0718 13005KT P6SM OVC050
     FM062200 15008KT 4SM -RA OVC028
     FM070300 23004KT 4SM -RA OVC007
     FM070500 27007KT 1 1/2SM -RA BKN004
     FM071100 28006KT 4SM BR BKN006
     FM071300 28005KT P6SM BKN018
     FM071600 28004KT P6SM BKN200=

USA.gov is the U.S. government's official web portal to all federal, state and local government web resources and services.